Time;durP1;ratioP1;P1;durP2;ratioP2;P2;SDS_P1;SDS_P2;PMS_P1;PMS_P2;Temp;Humidity;BMP_temperature;BMP_pressure;BME280_temperature;BME280_humidity;BME280_pressure;Samples;Min_cycle;Max_cycle;Signal;HPM_P1;HPM_P2
2023/12/11 00:01:44;;;;;;;28.52;5.88;;;;;;;;;;4784812;29;20195;-91
2023/12/11 00:04:11;;;;;;;27.15;5.15;;;;;;;;;;4807314;29;20445;-94
2023/12/11 00:06:37;;;;;;;35.10;6.35;;;;;;;;;;4806903;29;20393;-91
2023/12/11 00:09:03;;;;;;;28.15;5.15;;;;;;;;;;4807213;29;20038;-94
2023/12/11 00:11:30;;;;;;;17.17;6.20;;;;;;;;;;4806539;29;20076;-92
2023/12/11 00:13:56;;;;;;;19.73;5.72;;;;;;;;;;4793002;29;20046;-91
2023/12/11 00:16:22;;;;;;;29.63;6.70;;;;;;;;;;4807476;29;20054;-92
2023/12/11 00:18:51;;;;;;;28.40;6.65;;;;;;;;;;4807393;29;20494;-92
2023/12/11 00:21:17;;;;;;;40.30;7.65;;;;;;;;;;4810486;29;20042;-93
2023/12/11 00:23:44;;;;;;;31.02;6.40;;;;;;;;;;4795427;29;20081;-92
2023/12/11 00:26:10;;;;;;;23.27;6.43;;;;;;;;;;4810089;29;20058;-93
2023/12/11 00:28:36;;;;;;;40.75;6.53;;;;;;;;;;4795145;29;20133;-92
2023/12/11 00:31:07;;;;;;;30.10;7.32;;;;;;;;;;4809857;29;20046;-91
2023/12/11 00:33:33;;;;;;;22.30;6.35;;;;;;;;;;4810194;29;20066;-96
2023/12/11 00:35:59;;;;;;;39.03;7.45;;;;;;;;;;4825042;29;20137;-92
2023/12/11 00:38:26;;;;;;;30.63;7.10;;;;;;;;;;4809904;29;20054;-93
2023/12/11 00:40:53;;;;;;;26.85;6.40;;;;;;;;;;4810156;29;20054;-92
2023/12/11 00:43:19;;;;;;;35.83;8.68;;;;;;;;;;4810343;29;20043;-94
2023/12/11 00:45:45;;;;;;;26.02;8.00;;;;;;;;;;4810694;29;20050;-94
2023/12/11 00:48:11;;;;;;;40.95;7.90;;;;;;;;;;4810416;29;20054;-93
2023/12/11 00:50:37;;;;;;;45.55;8.98;;;;;;;;;;4795346;29;20043;-95
2023/12/11 00:53:03;;;;;;;29.02;6.25;;;;;;;;;;4810355;29;20117;-95
2023/12/11 00:55:30;;;;;;;25.23;5.65;;;;;;;;;;4809858;29;20050;-93
2023/12/11 00:57:56;;;;;;;31.27;7.47;;;;;;;;;;4817850;29;20076;-94
2023/12/11 01:00:22;;;;;;;31.88;7.53;;;;;;;;;;4809991;29;20046;-92
2023/12/11 01:02:48;;;;;;;28.83;7.70;;;;;;;;;;4809441;29;20496;-93
2023/12/11 01:05:14;;;;;;;35.83;8.85;;;;;;;;;;4809841;29;20059;-95
2023/12/11 01:07:40;;;;;;;46.70;8.90;;;;;;;;;;4809884;29;20125;-95
2023/12/11 01:10:06;;;;;;;31.15;5.90;;;;;;;;;;4798922;29;20443;-93
2023/12/11 01:12:33;;;;;;;32.65;6.13;;;;;;;;;;4809611;29;20412;-93
2023/12/11 01:14:59;;;;;;;31.95;5.47;;;;;;;;;;4809809;29;20054;-95
2023/12/11 01:17:25;;;;;;;28.85;6.90;;;;;;;;;;4793493;29;20057;-96
2023/12/11 01:19:51;;;;;;;28.98;7.78;;;;;;;;;;4809698;29;20054;-92
2023/12/11 01:22:17;;;;;;;25.52;7.93;;;;;;;;;;4810100;29;20055;-94
2023/12/11 01:24:43;;;;;;;27.35;6.60;;;;;;;;;;4824645;29;20050;-93
2023/12/11 01:27:09;;;;;;;37.03;7.65;;;;;;;;;;4809338;29;20083;-95
2023/12/11 01:29:35;;;;;;;35.97;8.07;;;;;;;;;;4809343;29;20130;-92
2023/12/11 01:32:01;;;;;;;28.73;6.38;;;;;;;;;;4809746;29;20039;-91
2023/12/11 01:34:27;;;;;;;38.88;8.25;;;;;;;;;;4794691;29;20054;-92
2023/12/11 01:36:53;;;;;;;30.98;7.10;;;;;;;;;;4794291;29;20092;-91
2023/12/11 01:39:19;;;;;;;31.35;7.97;;;;;;;;;;4809681;29;20114;-92
2023/12/11 01:41:45;;;;;;;28.00;6.30;;;;;;;;;;4794342;29;20054;-93
2023/12/11 01:44:11;;;;;;;25.02;7.10;;;;;;;;;;4808662;29;20078;-92
2023/12/11 01:46:38;;;;;;;22.95;6.45;;;;;;;;;;4824825;29;20042;-93
2023/12/11 01:49:04;;;;;;;31.13;7.60;;;;;;;;;;4809290;29;20409;-93
2023/12/11 01:51:31;;;;;;;24.35;6.75;;;;;;;;;;4809501;29;20050;-93
2023/12/11 01:53:57;;;;;;;27.55;5.68;;;;;;;;;;4796081;29;20047;-94
2023/12/11 01:56:23;;;;;;;19.63;6.63;;;;;;;;;;4793649;29;20058;-95
2023/12/11 01:58:50;;;;;;;23.33;6.82;;;;;;;;;;4809261;29;20046;-93
2023/12/11 02:01:17;;;;;;;32.60;7.10;;;;;;;;;;4794116;29;20098;-94
2023/12/11 02:03:43;;;;;;;21.70;6.85;;;;;;;;;;4801799;29;20053;-94
2023/12/11 02:06:09;;;;;;;26.88;7.07;;;;;;;;;;4798251;29;20043;-93
2023/12/11 02:08:35;;;;;;;21.92;6.97;;;;;;;;;;4793648;29;20047;-92
2023/12/11 02:11:03;;;;;;;24.42;6.93;;;;;;;;;;4794257;29;20043;-94
2023/12/11 02:13:29;;;;;;;35.50;5.93;;;;;;;;;;4808915;29;20051;-93
2023/12/11 02:15:56;;;;;;;35.22;5.88;;;;;;;;;;4793427;29;20057;-93
2023/12/11 02:18:22;;;;;;;26.23;6.57;;;;;;;;;;4790950;29;20039;-96
2023/12/11 02:20:48;;;;;;;27.75;5.97;;;;;;;;;;4806203;29;20050;-94
2023/12/11 02:23:34;;;;;;;23.35;6.03;;;;;;;;;;4816524;29;20046;-94
2023/12/11 02:26:03;;;;;;;29.42;6.15;;;;;;;;;;4793415;29;20146;-93
2023/12/11 02:28:29;;;;;;;28.92;5.75;;;;;;;;;;4808770;29;20050;-96
2023/12/11 02:30:55;;;;;;;37.17;7.72;;;;;;;;;;4808654;29;20058;-93
2023/12/11 02:33:21;;;;;;;25.23;5.63;;;;;;;;;;4791785;29;20089;-96
2023/12/11 02:35:48;;;;;;;26.73;6.93;;;;;;;;;;4793562;29;20504;-96
2023/12/11 02:38:14;;;;;;;26.02;6.68;;;;;;;;;;4808223;29;20050;-93
2023/12/11 02:40:40;;;;;;;33.58;6.75;;;;;;;;;;4807990;29;20416;-96
2023/12/11 02:43:06;;;;;;;35.33;6.95;;;;;;;;;;4800421;29;20137;-94
2023/12/11 02:45:32;;;;;;;49.88;7.95;;;;;;;;;;4784537;29;20042;-93
2023/12/11 02:48:02;;;;;;;25.27;5.80;;;;;;;;;;4808350;29;20061;-94
2023/12/11 02:50:32;;;;;;;33.13;9.00;;;;;;;;;;4793489;29;20497;-93
2023/12/11 02:52:58;;;;;;;30.20;9.40;;;;;;;;;;4801224;29;20030;-95
2023/12/11 02:55:24;;;;;;;25.85;5.97;;;;;;;;;;4823544;29;20058;-95
2023/12/11 02:57:52;;;;;;;41.60;7.78;;;;;;;;;;4807757;29;20125;-96
2023/12/11 03:00:18;;;;;;;33.58;6.55;;;;;;;;;;4808223;29;20046;-95
2023/12/11 03:02:52;;;;;;;16.17;5.32;;;;;;;;;;4808839;29;20058;-95
2023/12/11 03:05:18;;;;;;;38.40;7.43;;;;;;;;;;4808049;29;20057;-94
2023/12/11 03:07:44;;;;;;;30.08;6.45;;;;;;;;;;4808009;29;20058;-93
2023/12/11 03:10:11;;;;;;;46.63;8.00;;;;;;;;;;4800327;29;20059;-94
2023/12/11 03:12:37;;;;;;;32.88;6.57;;;;;;;;;;4807943;29;20137;-96
2023/12/11 03:15:04;;;;;;;30.80;7.47;;;;;;;;;;4808251;29;20046;-94
2023/12/11 03:17:30;;;;;;;25.50;6.43;;;;;;;;;;4798670;29;20061;-95
2023/12/11 03:19:56;;;;;;;35.92;6.22;;;;;;;;;;4807694;29;20137;-93
2023/12/11 03:22:25;;;;;;;37.53;7.28;;;;;;;;;;4808088;29;20046;-94
2023/12/11 03:24:54;;;;;;;37.65;8.27;;;;;;;;;;4793096;29;20565;-96
2023/12/11 03:27:20;;;;;;;42.53;6.85;;;;;;;;;;4807962;29;20050;-93
2023/12/11 03:29:47;;;;;;;38.05;7.70;;;;;;;;;;4808176;29;20110;-96
2023/12/11 03:32:13;;;;;;;33.88;8.20;;;;;;;;;;4807916;29;20046;-95
2023/12/11 03:34:39;;;;;;;34.03;7.95;;;;;;;;;;4793017;29;20053;-96
2023/12/11 03:37:05;;;;;;;36.88;6.93;;;;;;;;;;4801466;29;20050;-94
2023/12/11 03:39:32;;;;;;;31.38;6.20;;;;;;;;;;4807919;29;20089;-95
2023/12/11 03:41:58;;;;;;;38.85;7.25;;;;;;;;;;4807671;29;20129;-92
2023/12/11 03:44:24;;;;;;;34.33;6.47;;;;;;;;;;4792967;29;20042;-93
2023/12/11 03:46:50;;;;;;;37.10;8.30;;;;;;;;;;4823079;29;20054;-95
2023/12/11 03:49:18;;;;;;;40.25;7.30;;;;;;;;;;4807960;29;20054;-94
2023/12/11 03:51:44;;;;;;;37.17;7.93;;;;;;;;;;4793445;29;20046;-94
2023/12/11 03:54:11;;;;;;;40.40;7.68;;;;;;;;;;4811703;29;20042;-93
2023/12/11 03:56:37;;;;;;;27.55;7.22;;;;;;;;;;4812497;29;20110;-94
2023/12/11 03:59:03;;;;;;;36.58;7.40;;;;;;;;;;4812572;29;20164;-92
2023/12/11 04:01:32;;;;;;;35.63;9.07;;;;;;;;;;4815505;29;20572;-95
2023/12/11 04:03:58;;;;;;;37.10;7.55;;;;;;;;;;4811781;29;20047;-94
2023/12/11 04:06:24;;;;;;;37.63;8.93;;;;;;;;;;4810993;29;20054;-93
2023/12/11 04:08:50;;;;;;;50.38;9.32;;;;;;;;;;4812178;29;20104;-94
2023/12/11 04:11:16;;;;;;;19.65;4.85;;;;;;;;;;4804079;29;20130;-94
2023/12/11 04:13:42;;;;;;;32.72;8.50;;;;;;;;;;4811266;29;20038;-95
2023/12/11 04:16:08;;;;;;;31.52;6.60;;;;;;;;;;4811793;29;20072;-96
2023/12/11 04:18:36;;;;;;;32.10;7.00;;;;;;;;;;4811707;29;20050;-96
2023/12/11 04:21:02;;;;;;;31.85;7.80;;;;;;;;;;4799569;29;20089;-95
2023/12/11 04:23:28;;;;;;;29.13;6.13;;;;;;;;;;4804454;29;20105;-95
2023/12/11 04:25:54;;;;;;;32.38;7.07;;;;;;;;;;4810967;29;20062;-94
2023/12/11 04:28:21;;;;;;;28.05;6.53;;;;;;;;;;4811180;29;20508;-94
2023/12/11 04:30:47;;;;;;;39.75;9.10;;;;;;;;;;4801340;29;20107;-93
2023/12/11 04:33:13;;;;;;;29.50;8.38;;;;;;;;;;4811246;29;20039;-96
2023/12/11 04:35:40;;;;;;;42.10;7.50;;;;;;;;;;4811889;29;20047;-94
2023/12/11 04:38:06;;;;;;;37.38;7.57;;;;;;;;;;4783113;29;20160;-94
2023/12/11 04:40:32;;;;;;;35.90;8.00;;;;;;;;;;4812048;29;20125;-94
2023/12/11 04:42:59;;;;;;;29.63;6.35;;;;;;;;;;4811254;29;20066;-95
2023/12/11 04:45:25;;;;;;;41.90;7.30;;;;;;;;;;4803827;29;20038;-95
2023/12/11 04:47:51;;;;;;;32.45;7.15;;;;;;;;;;4812372;29;20050;-96
2023/12/11 04:50:18;;;;;;;43.03;7.20;;;;;;;;;;4790685;29;20043;-92
2023/12/11 04:52:44;;;;;;;40.50;7.53;;;;;;;;;;4796573;29;20054;-94
2023/12/11 04:55:10;;;;;;;31.55;6.32;;;;;;;;;;4796013;29;20047;-93
2023/12/11 04:57:36;;;;;;;31.98;6.68;;;;;;;;;;4782409;29;20051;-94
2023/12/11 05:00:04;;;;;;;36.58;6.78;;;;;;;;;;4811264;29;20057;-96
2023/12/11 05:02:30;;;;;;;37.90;7.18;;;;;;;;;;4789737;29;20108;-95
2023/12/11 05:04:56;;;;;;;28.27;6.38;;;;;;;;;;4795319;29;20043;-94
2023/12/11 05:07:22;;;;;;;28.35;8.50;;;;;;;;;;4800304;29;20058;-94
2023/12/11 05:09:49;;;;;;;28.77;7.68;;;;;;;;;;4800956;29;20203;-95
2023/12/11 05:12:15;;;;;;;31.77;7.78;;;;;;;;;;4813699;29;20050;-96
2023/12/11 05:14:41;;;;;;;20.65;6.18;;;;;;;;;;4810987;29;20042;-94
2023/12/11 05:17:07;;;;;;;46.30;7.13;;;;;;;;;;4793436;29;20053;-96
2023/12/11 05:19:35;;;;;;;35.85;7.13;;;;;;;;;;4795253;29;20086;-95
2023/12/11 05:22:02;;;;;;;27.73;7.03;;;;;;;;;;4790288;29;20054;-94
2023/12/11 05:24:28;;;;;;;23.75;6.03;;;;;;;;;;4810025;29;20340;-94
2023/12/11 05:26:57;;;;;;;36.30;7.28;;;;;;;;;;4809101;29;20068;-94
2023/12/11 05:29:23;;;;;;;30.13;6.70;;;;;;;;;;4809898;29;21145;-95
2023/12/11 05:31:49;;;;;;;31.02;7.30;;;;;;;;;;4825265;29;20058;-95
2023/12/11 05:34:15;;;;;;;29.75;6.07;;;;;;;;;;4802594;29;20394;-96
2023/12/11 05:36:41;;;;;;;21.80;5.72;;;;;;;;;;4810649;29;20690;-95
2023/12/11 05:39:07;;;;;;;31.50;6.65;;;;;;;;;;4810559;29;20121;-95
2023/12/11 05:41:34;;;;;;;30.83;6.22;;;;;;;;;;4788551;29;20069;-93
2023/12/11 05:44:00;;;;;;;20.30;6.68;;;;;;;;;;4789246;29;20055;-96
2023/12/11 05:46:26;;;;;;;25.23;6.18;;;;;;;;;;4806833;29;20046;-94
2023/12/11 05:48:54;;;;;;;24.50;5.82;;;;;;;;;;4812638;29;20057;-95
2023/12/11 06:05:39;;;;;;;22.33;5.63;;;;;;;;;;4924785;23;20058;-94
2023/12/11 06:08:42;;;;;;;15.30;4.60;;;;;;;;;;4797052;29;20054;-93
2023/12/11 06:11:35;;;;;;;17.52;5.57;;;;;;;;;;4777222;29;20152;-96
2023/12/11 06:17:43;;;;;;;17.85;5.65;;;;;;;;;;4773891;29;20535;-96
2023/12/11 06:20:29;;;;;;;20.92;4.97;;;;;;;;;;4761047;30;20516;-94
2023/12/11 06:23:32;;;;;;;22.42;6.13;;;;;;;;;;4824307;24;20116;-95
2023/12/11 06:26:59;;;;;;;;;;;;;;;;;;;;;
2023/12/11 06:32:46;;;;;;;;;;;;;;;;;;;;;
2023/12/11 06:35:40;;;;;;;21.30;5.30;;;;;;;;;;4825872;29;20111;-92
2023/12/11 21:49:56;;;;;;;12.00;3.00;;;;;;;;;;5825685;24;20063;31
2023/12/11 21:52:24;;;;;;;9.75;2.45;;;;;;;;;;4767336;30;20051;-94
2023/12/11 21:54:50;;;;;;;6.50;2.42;;;;;;;;;;4765024;30;20060;-96
2023/12/11 21:57:17;;;;;;;13.63;2.67;;;;;;;;;;4763293;30;20048;-95
2023/12/11 21:59:43;;;;;;;9.90;2.40;;;;;;;;;;4767560;30;20048;-95
2023/12/11 22:02:09;;;;;;;14.27;3.33;;;;;;;;;;4766984;30;20047;-95
2023/12/11 22:04:35;;;;;;;9.15;2.53;;;;;;;;;;4762699;30;20048;-95
2023/12/11 22:07:01;;;;;;;10.65;2.05;;;;;;;;;;4786111;30;20047;-95
2023/12/11 22:09:27;;;;;;;6.30;2.53;;;;;;;;;;4753916;30;20036;-94
2023/12/11 22:12:01;;;;;;;19.75;2.65;;;;;;;;;;4786852;24;20423;-95
2023/12/11 22:14:30;;;;;;;5.43;2.10;;;;;;;;;;4785765;29;20489;-96
2023/12/11 22:16:56;;;;;;;11.80;3.63;;;;;;;;;;4790104;29;20054;-95
2023/12/11 22:19:22;;;;;;;7.53;2.63;;;;;;;;;;4790723;29;20043;-94
2023/12/11 22:24:28;;;;;;;8.07;2.50;;;;;;;;;;4820368;24;20080;-95
2023/12/11 22:30:01;;;;;;;10.43;1.98;;;;;;;;;;4825991;24;20134;-96
2023/12/11 22:32:33;;;;;;;5.57;2.10;;;;;;;;;;4808403;29;20062;-96
2023/12/11 22:35:01;;;;;;;9.77;2.72;;;;;;;;;;4808153;29;20118;-96
2023/12/11 22:37:30;;;;;;;15.32;2.78;;;;;;;;;;4809638;29;20500;-96
2023/12/11 22:39:56;;;;;;;7.75;1.90;;;;;;;;;;4809730;29;20046;-96
2023/12/11 22:42:22;;;;;;;6.35;1.98;;;;;;;;;;4806743;29;20137;-95
2023/12/11 22:44:48;;;;;;;7.50;2.13;;;;;;;;;;4806368;29;20050;-95
2023/12/11 22:47:16;;;;;;;4.43;2.55;;;;;;;;;;4806556;29;20054;-96
2023/12/11 22:49:43;;;;;;;5.05;2.17;;;;;;;;;;4791431;29;20047;-95
2023/12/11 22:52:09;;;;;;;7.22;2.42;;;;;;;;;;4791760;29;20062;-95
2023/12/11 22:54:37;;;;;;;11.48;2.35;;;;;;;;;;4807454;29;20050;-96
2023/12/11 22:57:03;;;;;;;9.43;2.05;;;;;;;;;;4809551;29;20046;-95
2023/12/11 22:59:30;;;;;;;9.02;2.20;;;;;;;;;;4808724;29;20050;-94
2023/12/11 23:01:58;;;;;;;5.32;2.30;;;;;;;;;;4822132;29;20056;-95
2023/12/11 23:04:25;;;;;;;8.90;2.85;;;;;;;;;;4794203;29;20046;-95
2023/12/11 23:06:53;;;;;;;10.82;2.13;;;;;;;;;;4808692;29;20058;-95
2023/12/11 23:09:19;;;;;;;10.35;2.78;;;;;;;;;;4809025;29;20099;-96
2023/12/11 23:11:45;;;;;;;8.25;2.10;;;;;;;;;;4808962;29;20089;-96
2023/12/11 23:14:11;;;;;;;9.63;2.08;;;;;;;;;;4794268;29;20047;-96
2023/12/11 23:16:38;;;;;;;8.80;2.08;;;;;;;;;;4784524;30;20123;-96
2023/12/11 23:19:06;;;;;;;8.98;2.05;;;;;;;;;;4798207;29;20046;-96
2023/12/11 23:21:41;;;;;;;8.65;2.25;;;;;;;;;;4790501;29;20051;-94
2023/12/11 23:24:07;;;;;;;5.35;1.90;;;;;;;;;;4776414;29;20043;-96
2023/12/11 23:26:34;;;;;;;3.65;1.50;;;;;;;;;;4776025;29;20118;-95
2023/12/11 23:29:00;;;;;;;6.07;2.10;;;;;;;;;;4790929;29;20046;-96
2023/12/11 23:31:28;;;;;;;9.43;2.97;;;;;;;;;;4775746;29;20054;-95
2023/12/11 23:33:54;;;;;;;9.57;2.00;;;;;;;;;;4790210;29;20142;-96
2023/12/11 23:36:21;;;;;;;7.18;1.75;;;;;;;;;;4790903;29;20191;-95
2023/12/11 23:38:50;;;;;;;6.20;1.88;;;;;;;;;;4775171;29;20059;-95
2023/12/11 23:41:16;;;;;;;13.73;2.25;;;;;;;;;;4790602;29;20047;-95
2023/12/11 23:43:42;;;;;;;4.93;2.35;;;;;;;;;;4775707;29;20047;-95
2023/12/11 23:46:08;;;;;;;3.63;1.98;;;;;;;;;;4789364;29;20051;-95
2023/12/11 23:48:40;;;;;;;6.68;2.20;;;;;;;;;;4790522;29;20058;-95
2023/12/11 23:51:09;;;;;;;2.45;1.85;;;;;;;;;;4775863;29;20058;-95
2023/12/11 23:53:35;;;;;;;3.55;1.70;;;;;;;;;;4790983;29;20046;-95
2023/12/11 23:56:04;;;;;;;6.80;2.10;;;;;;;;;;4790264;29;20073;-95
2023/12/11 23:58:30;;;;;;;4.50;1.42;;;;;;;;;;4790546;29;20051;-94
